createdAt,value
2023-05-07T00:01:27.223Z,97158.34
2023-05-07T00:03:54.001Z,97150.53
2023-05-07T00:06:20.919Z,97144.91
2023-05-07T00:08:47.773Z,97149.00
2023-05-07T00:11:14.502Z,97157.97
2023-05-07T00:13:41.108Z,97163.22
2023-05-07T00:16:07.829Z,97164.56
2023-05-07T00:18:34.605Z,97171.13
2023-05-07T00:21:01.263Z,97155.84
2023-05-07T00:23:27.909Z,97156.72
2023-05-07T00:25:54.635Z,97166.19
2023-05-07T00:28:21.248Z,97178.59
2023-05-07T00:30:47.919Z,97153.47
2023-05-07T00:33:14.769Z,97169.53
2023-05-07T00:35:41.514Z,97177.88
2023-05-07T00:38:08.207Z,97155.59
2023-05-07T00:40:35.001Z,97148.44
2023-05-07T00:43:01.712Z,97158.63
2023-05-07T00:45:29.593Z,97146.00
2023-05-07T00:48:02.333Z,97140.63
2023-05-07T00:50:29.916Z,97149.63
2023-05-07T00:52:57.166Z,97154.47
2023-05-07T00:55:25.047Z,97151.47
2023-05-07T00:57:52.235Z,97145.09
2023-05-07T01:00:19.731Z,97141.81
2023-05-07T01:02:47.844Z,97144.28
2023-05-07T01:05:17.132Z,97138.56
2023-05-07T01:07:44.758Z,97135.72
2023-05-07T01:10:12.008Z,97138.56
2023-05-07T01:12:40.390Z,97150.75
2023-05-07T01:15:09.159Z,97144.41
2023-05-07T01:17:43.394Z,97154.59
2023-05-07T01:20:11.813Z,97143.41
2023-05-07T01:22:39.536Z,97133.84
2023-05-07T01:25:08.449Z,97142.59
2023-05-07T01:27:36.579Z,97150.31
2023-05-07T01:30:06.340Z,97147.06
2023-05-07T01:32:46.832Z,97151.56
2023-05-07T01:35:23.871Z,97152.97
2023-05-07T01:37:51.138Z,97149.50
2023-05-07T01:40:18.146Z,97147.06
2023-05-07T01:42:45.113Z,97147.06
2023-05-07T01:45:12.567Z,97143.16
2023-05-07T01:47:40.683Z,97140.25
2023-05-07T01:50:09.803Z,97161.91
2023-05-07T01:52:39.082Z,97148.69
2023-05-07T01:55:07.421Z,97134.59
2023-05-07T01:57:34.197Z,97144.53
2023-05-07T02:00:00.989Z,97134.97
2023-05-07T02:02:27.898Z,97134.97
2023-05-07T02:04:54.754Z,97149.50
2023-05-07T02:07:21.499Z,97139.53
2023-05-07T02:09:48.238Z,97129.97
2023-05-07T02:12:14.939Z,97133.22
2023-05-07T02:14:41.665Z,97133.78
2023-05-07T02:17:08.829Z,97138.91
2023-05-07T02:19:36.262Z,97127.19
2023-05-07T02:22:03.027Z,97135.50
2023-05-07T02:24:29.729Z,97143.41
2023-05-07T02:26:56.548Z,97136.50
2023-05-07T02:29:23.207Z,97137.50
2023-05-07T02:31:52.028Z,97117.13
2023-05-07T02:34:18.862Z,97120.38
2023-05-07T02:36:45.759Z,97126.13
2023-05-07T02:39:13.677Z,97133.38
2023-05-07T02:41:40.644Z,97127.44
2023-05-07T02:44:07.416Z,97132.53
2023-05-07T02:46:34.434Z,97122.72
2023-05-07T02:49:01.211Z,97124.25
2023-05-07T02:51:28.372Z,97125.28
2023-05-07T02:53:55.118Z,97121.97
2023-05-07T02:56:22.193Z,97126.25
2023-05-07T02:58:49.099Z,97114.63
2023-05-07T03:01:15.942Z,97109.53
2023-05-07T03:03:42.916Z,97117.63
2023-05-07T03:06:09.729Z,97115.00
2023-05-07T03:08:37.596Z,97126.25
2023-05-07T03:11:04.454Z,97118.69
2023-05-07T03:13:31.294Z,97135.34
2023-05-07T03:15:58.383Z,97119.88
2023-05-07T03:18:25.317Z,97110.59
2023-05-07T03:20:53.111Z,97124.13
2023-05-07T03:23:19.978Z,97116.38
2023-05-07T03:25:46.794Z,97123.69
2023-05-07T03:28:13.661Z,97120.38
2023-05-07T03:30:40.414Z,97126.44
2023-05-07T03:33:07.201Z,97116.81
2023-05-07T03:35:33.890Z,97123.09
2023-05-07T03:38:00.627Z,97114.25
2023-05-07T03:40:27.343Z,97120.72
2023-05-07T03:42:54.073Z,97117.44
2023-05-07T03:45:21.435Z,97134.47
2023-05-07T03:47:48.372Z,97111.16
2023-05-07T03:50:15.223Z,97138.47
2023-05-07T03:52:42.078Z,97116.19
2023-05-07T03:55:09.312Z,97119.28
2023-05-07T03:57:36.058Z,97124.41
2023-05-07T04:00:03.412Z,97126.56
2023-05-07T04:02:30.417Z,97122.91
2023-05-07T04:04:58.024Z,97121.63
2023-05-07T04:07:24.702Z,97120.16
2023-05-07T04:09:51.459Z,97135.91
2023-05-07T04:12:18.291Z,97123.59
2023-05-07T04:14:45.000Z,97141.00
2023-05-07T04:17:11.924Z,97128.19
2023-05-07T04:19:38.752Z,97128.81
2023-05-07T04:22:05.647Z,97125.75
2023-05-07T04:24:34.111Z,97135.47
2023-05-07T04:27:00.836Z,97131.84
2023-05-07T04:29:28.385Z,97140.25
2023-05-07T04:31:57.515Z,97130.06
2023-05-07T04:34:24.637Z,97132.97
2023-05-07T04:36:51.355Z,97134.59
2023-05-07T04:39:18.108Z,97131.50
2023-05-07T04:41:44.846Z,97132.56
2023-05-07T04:44:12.066Z,97123.59
2023-05-07T04:46:38.895Z,97132.75
2023-05-07T04:49:06.784Z,97142.03
2023-05-07T04:51:33.787Z,97140.88
2023-05-07T04:54:00.614Z,97124.69
2023-05-07T04:56:30.312Z,97130.44
2023-05-07T04:58:57.239Z,97136.97
2023-05-07T05:01:24.118Z,97139.94
2023-05-07T05:03:51.098Z,97151.44
2023-05-07T05:06:17.874Z,97158.81
2023-05-07T05:08:44.701Z,97141.72
2023-05-07T05:11:11.644Z,97144.41
2023-05-07T05:13:38.310Z,97141.81
2023-05-07T05:16:05.446Z,97160.19
2023-05-07T05:18:32.211Z,97151.22
2023-05-07T05:20:59.055Z,97145.56
2023-05-07T05:23:25.777Z,97141.75
2023-05-07T05:25:57.498Z,97156.31
2023-05-07T05:28:24.729Z,97144.53
2023-05-07T05:30:51.825Z,97146.28
2023-05-07T05:33:18.532Z,97153.88
2023-05-07T05:35:45.234Z,97136.41
2023-05-07T05:38:12.090Z,97151.53
2023-05-07T05:40:38.782Z,97154.19
2023-05-07T05:43:05.471Z,97166.44
2023-05-07T05:45:32.168Z,97164.22
2023-05-07T05:47:58.928Z,97165.88
2023-05-07T05:50:26.076Z,97164.88
2023-05-07T05:52:52.932Z,97159.56
2023-05-07T05:55:19.730Z,97162.88
2023-05-07T05:57:47.280Z,97174.06
2023-05-07T06:00:14.560Z,97164.91
2023-05-07T06:02:41.728Z,97166.13
2023-05-07T06:05:08.919Z,97172.06
2023-05-07T06:07:35.885Z,97176.75
2023-05-07T06:10:02.843Z,97166.16
2023-05-07T06:12:29.652Z,97168.81
2023-05-07T06:14:56.467Z,97174.31
2023-05-07T06:17:23.233Z,97193.91
2023-05-07T06:19:49.896Z,97191.03
2023-05-07T06:22:16.688Z,97187.53
2023-05-07T06:24:44.099Z,97181.19
2023-05-07T06:27:10.943Z,97178.72
2023-05-07T06:29:37.884Z,97183.19
2023-05-07T06:32:12.554Z,97192.09
2023-05-07T06:34:40.667Z,97195.13
2023-05-07T06:37:07.921Z,97186.72
2023-05-07T06:39:34.938Z,97190.78
2023-05-07T06:42:03.229Z,97200.94
2023-05-07T06:44:30.033Z,97205.38
2023-05-07T06:46:56.739Z,97191.25
2023-05-07T06:49:23.626Z,97197.81
2023-05-07T06:51:50.443Z,97204.34
2023-05-07T06:54:17.413Z,97211.97
2023-05-07T06:56:44.247Z,97203.19
2023-05-07T06:59:11.028Z,97222.94
2023-05-07T07:01:37.923Z,97211.00
2023-05-07T07:04:04.986Z,97204.63
2023-05-07T07:06:32.960Z,97208.41
2023-05-07T07:09:00.633Z,97209.66
2023-05-07T07:11:27.373Z,97199.81
2023-05-07T07:13:55.617Z,97198.13
2023-05-07T07:16:23.296Z,97201.72
2023-05-07T07:18:50.085Z,97201.84
2023-05-07T07:21:16.744Z,97204.53
2023-05-07T07:23:43.435Z,97202.22
2023-05-07T07:26:10.208Z,97197.03
2023-05-07T07:28:45.185Z,97204.03
2023-05-07T07:31:12.466Z,97204.03
2023-05-07T07:33:39.511Z,97212.97
2023-05-07T07:36:07.653Z,97204.00
2023-05-07T07:38:35.085Z,97196.59
2023-05-07T07:41:02.686Z,97211.34
2023-05-07T07:43:29.869Z,97210.75
2023-05-07T07:45:56.850Z,97222.03
2023-05-07T07:48:23.682Z,97203.81
2023-05-07T07:50:54.332Z,97206.59
2023-05-07T07:53:21.188Z,97194.25
2023-05-07T07:55:48.133Z,97203.75
2023-05-07T07:58:14.998Z,97207.56
2023-05-07T08:00:41.867Z,97204.78
2023-05-07T08:03:15.682Z,97203.25
2023-05-07T08:05:43.112Z,97195.25
2023-05-07T08:08:10.659Z,97205.38
2023-05-07T08:10:39.689Z,97203.59
2023-05-07T08:13:07.817Z,97215.75
2023-05-07T08:15:34.915Z,97208.94
2023-05-07T08:18:04.487Z,97212.50
2023-05-07T08:20:31.625Z,97223.38
2023-05-07T08:22:58.897Z,97227.03
2023-05-07T08:25:26.865Z,97210.16
2023-05-07T08:27:53.993Z,97213.91
2023-05-07T08:30:21.024Z,97211.66
2023-05-07T08:32:48.319Z,97210.78
2023-05-07T08:35:15.120Z,97218.50
2023-05-07T08:37:42.140Z,97218.47
2023-05-07T08:40:11.341Z,97213.72
2023-05-07T08:42:41.559Z,97218.00
2023-05-07T08:45:12.364Z,97222.81
2023-05-07T08:47:48.165Z,97223.22
2023-05-07T08:50:15.245Z,97215.31
2023-05-07T08:52:42.745Z,97206.44
2023-05-07T08:55:10.987Z,97213.88
2023-05-07T08:57:40.361Z,97217.38
2023-05-07T09:00:08.949Z,97217.19
2023-05-07T09:02:38.958Z,97210.03
2023-05-07T09:05:06.366Z,97215.97
2023-05-07T09:07:33.516Z,97207.44
2023-05-07T09:10:03.276Z,97210.16
2023-05-07T09:12:30.303Z,97209.06
2023-05-07T09:14:57.116Z,97212.28
2023-05-07T09:17:24.173Z,97216.34
2023-05-07T09:19:52.518Z,97214.56
2023-05-07T09:22:19.440Z,97210.81
2023-05-07T09:24:53.069Z,97203.50
2023-05-07T09:27:19.855Z,97203.16
2023-05-07T09:29:46.913Z,97200.84
2023-05-07T09:32:14.555Z,97213.56
2023-05-07T09:34:43.255Z,97215.72
2023-05-07T09:37:10.322Z,97198.94
2023-05-07T09:39:44.423Z,97214.59
2023-05-07T09:42:12.752Z,97208.34
2023-05-07T09:44:40.176Z,97209.59
2023-05-07T09:47:07.680Z,97204.19
2023-05-07T09:49:38.939Z,97205.13
2023-05-07T09:52:07.487Z,97206.00
2023-05-07T09:54:34.949Z,97207.97
2023-05-07T09:57:04.154Z,97212.19
2023-05-07T09:59:32.772Z,97205.25
2023-05-07T10:02:03.377Z,97214.09
2023-05-07T10:04:32.647Z,97211.06
2023-05-07T10:07:00.492Z,97211.38
2023-05-07T10:09:27.803Z,97209.38
2023-05-07T10:11:55.382Z,97215.41
2023-05-07T10:14:22.707Z,97218.41
2023-05-07T10:16:49.693Z,97215.13
2023-05-07T10:19:16.387Z,97218.94
2023-05-07T10:21:52.368Z,97210.31
2023-05-07T10:24:38.630Z,97212.84
2023-05-07T10:27:11.506Z,97205.19
2023-05-07T10:30:17.006Z,97199.94
2023-05-07T10:32:49.822Z,97202.25
2023-05-07T10:35:22.587Z,97204.09
2023-05-07T10:37:49.463Z,97199.81
2023-05-07T10:40:16.384Z,97204.78
2023-05-07T10:43:02.699Z,97205.91
2023-05-07T10:45:30.182Z,97199.78
2023-05-07T10:48:28.618Z,97203.91
2023-05-07T10:51:20.717Z,97197.53
2023-05-07T10:53:47.530Z,97210.28
2023-05-07T10:56:20.368Z,97223.19
2023-05-07T10:58:47.125Z,97209.16
2023-05-07T11:01:15.937Z,97213.38
2023-05-07T11:04:14.995Z,97211.34
2023-05-07T11:06:41.879Z,97212.09
2023-05-07T11:09:08.922Z,97202.25
2023-05-07T11:11:49.423Z,97197.28
2023-05-07T11:14:42.300Z,97201.88
2023-05-07T11:17:09.958Z,97202.19
2023-05-07T11:19:51.586Z,97190.38
2023-05-07T11:22:34.256Z,97207.31
2023-05-07T11:25:01.724Z,97199.63
2023-05-07T11:27:28.863Z,97195.19
2023-05-07T11:29:56.028Z,97198.25
2023-05-07T11:32:30.548Z,97200.88
2023-05-07T11:34:59.986Z,97196.66
2023-05-07T11:37:28.991Z,97194.00
2023-05-07T11:40:08.058Z,97197.84
2023-05-07T11:42:38.771Z,97195.81
2023-05-07T11:45:07.928Z,97209.59
2023-05-07T11:47:35.406Z,97203.88
2023-05-07T11:50:08.832Z,97209.47
2023-05-07T11:52:36.298Z,97212.81
2023-05-07T11:55:05.786Z,97204.28
2023-05-07T11:57:34.662Z,97223.84
2023-05-07T12:00:03.653Z,97209.09
2023-05-07T12:02:30.976Z,97215.28
2023-05-07T12:04:57.814Z,97215.53
2023-05-07T12:07:26.157Z,97214.09
2023-05-07T12:09:53.383Z,97209.59
2023-05-07T12:12:20.569Z,97223.19
2023-05-07T12:14:47.662Z,97218.66
2023-05-07T12:17:15.764Z,97226.25
2023-05-07T12:19:44.234Z,97234.44
2023-05-07T12:22:11.805Z,97233.91
2023-05-07T12:24:51.760Z,97233.91
2023-05-07T12:27:19.096Z,97246.06
2023-05-07T12:29:49.828Z,97243.97
2023-05-07T12:32:19.864Z,97249.19
2023-05-07T12:34:47.281Z,97244.13
2023-05-07T12:37:14.701Z,97246.63
2023-05-07T12:40:04.170Z,97244.72
2023-05-07T12:42:34.635Z,97250.91
2023-05-07T12:45:01.584Z,97251.44
2023-05-07T12:47:28.291Z,97256.88
2023-05-07T12:49:56.059Z,97258.09
2023-05-07T12:52:22.789Z,97263.97
2023-05-07T12:54:49.495Z,97262.41
2023-05-07T12:57:20.529Z,97270.88
2023-05-07T12:59:47.457Z,97284.16
2023-05-07T13:02:14.224Z,97277.44
2023-05-07T13:04:40.965Z,97276.22
2023-05-07T13:07:07.665Z,97276.66
2023-05-07T13:09:34.474Z,97273.94
2023-05-07T13:12:02.581Z,97268.38
2023-05-07T13:14:29.360Z,97261.22
2023-05-07T13:16:56.617Z,97266.03
2023-05-07T13:19:23.438Z,97275.03
2023-05-07T13:21:51.070Z,97268.97
2023-05-07T13:24:18.049Z,97283.31
2023-05-07T13:26:45.984Z,97266.66
2023-05-07T13:29:13.069Z,97269.59
2023-05-07T13:31:44.025Z,97276.78
2023-05-07T13:34:11.391Z,97269.31
2023-05-07T13:36:41.137Z,97274.03
2023-05-07T13:39:07.893Z,97269.66
2023-05-07T13:41:34.885Z,97270.16
2023-05-07T13:44:01.935Z,97278.31
2023-05-07T13:46:29.165Z,97273.25
2023-05-07T13:48:55.974Z,97273.59
2023-05-07T13:51:23.166Z,97278.72
2023-05-07T13:53:53.245Z,97283.38
2023-05-07T13:56:21.340Z,97278.38
2023-05-07T13:58:59.478Z,97278.84
2023-05-07T14:01:35.693Z,97282.09
2023-05-07T14:04:02.827Z,97273.38
2023-05-07T14:06:29.709Z,97279.63
2023-05-07T14:08:59.369Z,97286.09
2023-05-07T14:11:26.318Z,97281.28
2023-05-07T14:13:53.273Z,97277.88
2023-05-07T14:16:20.103Z,97274.75
2023-05-07T14:18:46.935Z,97275.81
2023-05-07T14:21:14.298Z,97282.19
2023-05-07T14:23:41.458Z,97288.19
2023-05-07T14:26:08.443Z,97291.25
2023-05-07T14:28:35.283Z,97289.22
2023-05-07T14:31:02.327Z,97293.84
2023-05-07T14:33:29.354Z,97286.56
2023-05-07T14:35:56.341Z,97299.97
2023-05-07T14:38:23.120Z,97297.47
2023-05-07T14:40:50.150Z,97306.94
2023-05-07T14:43:17.035Z,97297.00
2023-05-07T14:45:44.000Z,97304.94
2023-05-07T14:48:13.711Z,97290.34
2023-05-07T14:50:40.806Z,97295.66
2023-05-07T14:53:07.685Z,97297.72
2023-05-07T14:55:36.068Z,97308.94
2023-05-07T14:58:03.167Z,97297.59
2023-05-07T15:00:30.416Z,97309.47
2023-05-07T15:03:10.634Z,97310.34
2023-05-07T15:05:37.924Z,97312.66
2023-05-07T15:08:05.017Z,97302.44
2023-05-07T15:10:31.972Z,97307.16
2023-05-07T15:12:59.479Z,97314.28
2023-05-07T15:15:26.541Z,97309.56
2023-05-07T15:17:53.424Z,97310.59
2023-05-07T15:20:20.527Z,97298.97
2023-05-07T15:22:47.209Z,97298.22
2023-05-07T15:25:14.037Z,97316.25
2023-05-07T15:27:41.006Z,97294.66
2023-05-07T15:30:08.781Z,97301.28
2023-05-07T15:32:35.671Z,97307.84
2023-05-07T15:35:02.589Z,97290.75
2023-05-07T15:37:29.370Z,97302.44
2023-05-07T15:39:56.229Z,97302.44
2023-05-07T15:42:22.991Z,97312.25
2023-05-07T15:44:49.949Z,97306.34
2023-05-07T15:47:16.786Z,97315.94
2023-05-07T15:49:43.661Z,97312.84
2023-05-07T15:52:11.813Z,97313.50
2023-05-07T15:54:41.344Z,97299.81
2023-05-07T15:57:23.322Z,97298.16
2023-05-07T15:59:50.652Z,97295.28
2023-05-07T16:02:17.939Z,97307.31
2023-05-07T16:04:45.098Z,97308.34
2023-05-07T16:07:13.116Z,97314.88
2023-05-07T16:09:40.880Z,97291.97
2023-05-07T16:12:08.417Z,97298.84
2023-05-07T16:14:37.247Z,97298.25
2023-05-07T16:17:04.741Z,97282.31
2023-05-07T16:19:32.109Z,97295.16
2023-05-07T16:22:00.971Z,97301.66
2023-05-07T16:24:28.108Z,97297.22
2023-05-07T16:26:56.405Z,97300.47
2023-05-07T16:29:23.997Z,97299.06
2023-05-07T16:31:51.582Z,97303.78
2023-05-07T16:34:18.674Z,97312.75
2023-05-07T16:36:45.794Z,97291.53
2023-05-07T16:39:13.110Z,97316.22
2023-05-07T16:41:40.258Z,97308.91
2023-05-07T16:44:07.663Z,97312.16
2023-05-07T16:46:37.720Z,97298.53
2023-05-07T16:49:05.116Z,97293.03
2023-05-07T16:51:34.353Z,97307.91
2023-05-07T16:54:01.756Z,97296.91
2023-05-07T16:56:29.018Z,97304.66
2023-05-07T16:58:56.441Z,97297.53
2023-05-07T17:01:24.214Z,97306.31
2023-05-07T17:03:51.622Z,97303.84
2023-05-07T17:06:19.197Z,97323.88
2023-05-07T17:08:46.369Z,97311.66
2023-05-07T17:11:13.290Z,97302.44
2023-05-07T17:13:41.877Z,97314.09
2023-05-07T17:16:08.987Z,97315.50
2023-05-07T17:18:36.763Z,97320.44
2023-05-07T17:21:04.256Z,97306.38
2023-05-07T17:23:31.396Z,97306.16
2023-05-07T17:25:58.507Z,97313.94
2023-05-07T17:28:25.563Z,97320.28
2023-05-07T17:30:53.224Z,97310.50
2023-05-07T17:33:22.074Z,97329.31
2023-05-07T17:35:49.928Z,97317.50
2023-05-07T17:38:17.246Z,97326.69
2023-05-07T17:40:46.935Z,97316.69
2023-05-07T17:43:14.004Z,97338.78
2023-05-07T17:45:42.319Z,97326.91
2023-05-07T17:48:09.635Z,97335.91
2023-05-07T17:50:39.803Z,97340.41
2023-05-07T17:53:07.011Z,97330.19
2023-05-07T17:55:34.260Z,97331.44
2023-05-07T17:58:03.430Z,97335.72
2023-05-07T18:00:30.527Z,97341.84
2023-05-07T18:03:00.506Z,97357.38
2023-05-07T18:05:27.600Z,97347.78
2023-05-07T18:07:54.918Z,97346.56
2023-05-07T18:10:22.737Z,97356.59
2023-05-07T18:12:49.851Z,97356.00
2023-05-07T18:15:16.926Z,97359.66
2023-05-07T18:17:44.015Z,97359.25
2023-05-07T18:20:11.977Z,97352.69
2023-05-07T18:22:39.487Z,97363.75
2023-05-07T18:25:06.946Z,97359.03
2023-05-07T18:27:33.994Z,97373.31
2023-05-07T18:30:01.206Z,97374.13
2023-05-07T18:32:28.309Z,97356.34
2023-05-07T18:34:55.419Z,97361.22
2023-05-07T18:37:24.707Z,97373.88
2023-05-07T18:39:53.207Z,97378.97
2023-05-07T18:42:20.433Z,97369.38
2023-05-07T18:44:47.475Z,97376.13
2023-05-07T18:47:14.544Z,97371.63
2023-05-07T18:49:41.588Z,97369.78
2023-05-07T18:52:08.557Z,97372.03
2023-05-07T18:54:38.079Z,97390.59
2023-05-07T18:57:05.213Z,97381.00
2023-05-07T18:59:33.353Z,97386.72
2023-05-07T19:02:00.539Z,97404.06
2023-05-07T19:04:27.694Z,97388.88
2023-05-07T19:06:54.631Z,97393.56
2023-05-07T19:09:21.642Z,97404.38
2023-05-07T19:11:48.635Z,97402.31
2023-05-07T19:14:15.785Z,97404.38
2023-05-07T19:16:42.987Z,97409.66
2023-05-07T19:19:09.996Z,97422.72
2023-05-07T19:21:36.862Z,97413.34
2023-05-07T19:24:03.698Z,97414.16
2023-05-07T19:26:30.576Z,97422.31
2023-05-07T19:29:12.364Z,97420.66
2023-05-07T19:31:44.126Z,97431.63
2023-05-07T19:34:10.922Z,97438.97
2023-05-07T19:36:38.283Z,97447.53
2023-05-07T19:39:06.340Z,97440.19
2023-05-07T19:41:33.051Z,97437.72
2023-05-07T19:43:59.845Z,97443.66
2023-05-07T19:46:26.688Z,97437.72
2023-05-07T19:48:53.373Z,97441.19
2023-05-07T19:51:20.066Z,97456.69
2023-05-07T19:53:46.796Z,97454.84
2023-05-07T19:56:13.585Z,97461.38
2023-05-07T19:58:40.531Z,97466.25
2023-05-07T20:01:07.396Z,97476.47
2023-05-07T20:03:34.623Z,97464.75
2023-05-07T20:06:03.261Z,97478.44
2023-05-07T20:08:29.949Z,97480.06
2023-05-07T20:10:58.199Z,97478.03
2023-05-07T20:13:25.106Z,97471.47
2023-05-07T20:15:51.869Z,97492.28
2023-05-07T20:18:18.517Z,97483.91
2023-05-07T20:20:45.451Z,97489.41
2023-05-07T20:23:12.131Z,97492.66
2023-05-07T20:25:41.340Z,97496.34
2023-05-07T20:28:07.989Z,97484.09
2023-05-07T20:30:34.566Z,97495.31
2023-05-07T20:33:01.389Z,97485.50
2023-05-07T20:35:28.087Z,97479.13
2023-05-07T20:37:54.753Z,97487.75
2023-05-07T20:40:21.460Z,97487.94
2023-05-07T20:42:48.066Z,97492.59
2023-05-07T20:45:14.842Z,97502.84
2023-05-07T20:47:42.096Z,97501.56
2023-05-07T20:50:09.164Z,97496.03
2023-05-07T20:52:35.884Z,97512.16
2023-05-07T20:55:02.575Z,97503.16
2023-05-07T20:57:29.210Z,97505.81
2023-05-07T20:59:55.922Z,97507.63
2023-05-07T21:02:22.666Z,97497.66
2023-05-07T21:04:51.521Z,97514.63
2023-05-07T21:07:18.508Z,97518.28
2023-05-07T21:09:45.268Z,97508.06
2023-05-07T21:12:11.953Z,97503.34
2023-05-07T21:14:40.446Z,97517.66
2023-05-07T21:17:07.499Z,97532.59
2023-05-07T21:19:34.337Z,97526.91
2023-05-07T21:22:01.125Z,97532.25
2023-05-07T21:24:27.811Z,97524.88
2023-05-07T21:26:55.999Z,97534.69
2023-05-07T21:29:22.772Z,97531.03
2023-05-07T21:31:49.651Z,97528.38
2023-05-07T21:34:16.373Z,97537.63
2023-05-07T21:36:42.978Z,97532.94
2023-05-07T21:39:09.798Z,97537.66
2023-05-07T21:41:36.686Z,97539.72
2023-05-07T21:44:04.337Z,97542.63
2023-05-07T21:46:31.101Z,97535.84
2023-05-07T21:48:57.720Z,97520.09
2023-05-07T21:51:24.347Z,97534.22
2023-05-07T21:53:50.985Z,97534.00
2023-05-07T21:56:17.685Z,97537.75
2023-05-07T21:58:44.275Z,97538.50
2023-05-07T22:01:13.057Z,97541.97
2023-05-07T22:03:40.325Z,97537.44
2023-05-07T22:06:07.292Z,97542.63
2023-05-07T22:08:33.824Z,97534.81
2023-05-07T22:11:00.407Z,97532.75
2023-05-07T22:13:27.364Z,97532.31
2023-05-07T22:15:58.012Z,97536.34
2023-05-07T22:18:25.420Z,97537.34
2023-05-07T22:20:52.323Z,97539.78
2023-05-07T22:23:19.041Z,97530.16
2023-05-07T22:25:45.878Z,97516.19
2023-05-07T22:28:12.589Z,97519.63
2023-05-07T22:30:39.255Z,97530.00
2023-05-07T22:33:06.022Z,97522.25
2023-05-07T22:35:32.692Z,97515.22
2023-05-07T22:37:59.375Z,97521.16
2023-05-07T22:40:25.927Z,97534.41
2023-05-07T22:42:52.504Z,97531.13
2023-05-07T22:45:19.100Z,97515.19
2023-05-07T22:47:45.814Z,97515.19
2023-05-07T22:50:12.858Z,97523.31
2023-05-07T22:52:39.722Z,97521.69
2023-05-07T22:55:06.989Z,97524.97
2023-05-07T22:57:33.601Z,97523.31
2023-05-07T23:00:00.230Z,97507.34
2023-05-07T23:02:29.837Z,97521.69
2023-05-07T23:04:59.328Z,97523.31
2023-05-07T23:07:26.066Z,97513.47
2023-05-07T23:09:52.761Z,97507.50
2023-05-07T23:12:19.659Z,97500.75
2023-05-07T23:14:46.272Z,97505.88
2023-05-07T23:17:13.073Z,97515.81
2023-05-07T23:19:40.031Z,97520.09
2023-05-07T23:22:06.829Z,97520.31
2023-05-07T23:24:34.892Z,97508.00
2023-05-07T23:27:05.065Z,97513.38
2023-05-07T23:29:32.298Z,97502.25
2023-05-07T23:31:59.201Z,97495.34
2023-05-07T23:34:25.861Z,97505.53
2023-05-07T23:36:53.053Z,97516.56
2023-05-07T23:39:20.129Z,97504.28
2023-05-07T23:41:46.928Z,97504.09
2023-05-07T23:44:13.730Z,97521.41
2023-05-07T23:46:40.515Z,97503.41
2023-05-07T23:49:07.304Z,97514.00
2023-05-07T23:51:33.999Z,97514.00
2023-05-07T23:54:01.052Z,97510.69
2023-05-07T23:56:27.809Z,97515.53
2023-05-07T23:58:54.399Z,97516.63
